createdAt,value
2017-09-13T00:02:13.980Z,8.37
2017-09-13T00:04:41.459Z,5.00
2017-09-13T00:07:08.931Z,5.80
2017-09-13T00:09:37.151Z,5.40
2017-09-13T00:12:04.645Z,5.43
2017-09-13T00:14:32.099Z,14.93
2017-09-13T00:16:59.564Z,9.20
2017-09-13T00:19:27.035Z,6.70
2017-09-13T00:21:55.263Z,3.47
2017-09-13T00:24:22.747Z,7.17
2017-09-13T00:26:50.207Z,8.13
2017-09-13T00:29:17.713Z,6.90
2017-09-13T00:31:45.184Z,6.27
2017-09-13T00:34:12.668Z,5.63
2017-09-13T00:36:40.147Z,10.97
2017-09-13T00:39:08.391Z,5.03
2017-09-13T00:41:35.857Z,5.67
2017-09-13T00:44:03.323Z,6.60
2017-09-13T00:46:30.804Z,10.03
2017-09-13T00:48:59.042Z,4.73
2017-09-13T00:51:26.507Z,6.67
2017-09-13T00:53:53.980Z,9.03
2017-09-13T00:56:22.213Z,13.60
2017-09-13T00:58:50.552Z,8.70
2017-09-13T01:01:18.035Z,15.23
2017-09-13T01:03:45.500Z,7.23
2017-09-13T01:06:12.972Z,7.77
2017-09-13T01:08:40.435Z,5.07
2017-09-13T01:11:07.931Z,6.97
2017-09-13T01:13:35.403Z,8.13
2017-09-13T01:16:02.867Z,5.40
2017-09-13T01:18:30.348Z,7.10
2017-09-13T01:20:57.811Z,7.73
2017-09-13T01:23:25.282Z,8.07
2017-09-13T01:25:52.748Z,7.20
2017-09-13T01:28:20.201Z,6.07
2017-09-13T01:30:47.674Z,7.13
2017-09-13T01:33:15.916Z,10.27
2017-09-13T01:35:43.380Z,9.23
2017-09-13T01:38:10.863Z,13.20
2017-09-13T01:40:39.104Z,11.33
2017-09-13T01:43:06.558Z,12.80
2017-09-13T01:45:34.044Z,10.40
2017-09-13T01:48:02.268Z,10.03
2017-09-13T01:50:29.747Z,10.90
2017-09-13T01:52:57.201Z,11.00
2017-09-13T01:55:24.678Z,5.37
2017-09-13T01:57:52.905Z,9.47
2017-09-13T02:00:20.366Z,7.07
2017-09-13T02:02:47.839Z,6.33
2017-09-13T02:05:15.307Z,5.47
2017-09-13T02:07:42.790Z,6.23
2017-09-13T02:10:11.015Z,7.93
2017-09-13T02:12:38.472Z,7.63
2017-09-13T02:15:05.943Z,8.97
2017-09-13T02:17:33.407Z,8.23
2017-09-13T02:20:01.636Z,13.40
2017-09-13T02:22:29.112Z,17.00
2017-09-13T02:24:56.761Z,8.47
2017-09-13T02:27:24.227Z,6.53
2017-09-13T02:29:51.707Z,17.47
2017-09-13T02:32:19.196Z,10.77
2017-09-13T02:34:47.419Z,10.53
2017-09-13T02:37:14.879Z,10.20
2017-09-13T02:39:42.351Z,7.53
2017-09-13T02:42:09.836Z,8.10
2017-09-13T02:44:38.148Z,10.60
2017-09-13T02:47:05.615Z,10.20
2017-09-13T02:49:33.096Z,8.60
2017-09-13T02:52:00.574Z,11.57
2017-09-13T02:54:28.036Z,11.43
2017-09-13T02:56:56.278Z,9.30
2017-09-13T02:59:23.763Z,7.80
2017-09-13T03:01:51.999Z,15.73
2017-09-13T03:04:19.478Z,12.63
2017-09-13T03:06:46.934Z,7.07
2017-09-13T03:09:14.395Z,9.40
2017-09-13T03:11:41.863Z,7.70
2017-09-13T03:14:09.332Z,10.37
2017-09-13T03:16:37.567Z,8.43
2017-09-13T03:19:05.056Z,9.23
2017-09-13T03:21:33.290Z,5.43
2017-09-13T03:24:00.755Z,4.33
2017-09-13T03:26:28.226Z,11.13
2017-09-13T03:28:55.695Z,8.73
2017-09-13T03:31:23.952Z,6.73
2017-09-13T03:33:51.412Z,10.40
2017-09-13T03:36:18.868Z,3.77
2017-09-13T03:38:47.103Z,5.37
2017-09-13T03:41:14.567Z,9.50
2017-09-13T03:43:42.040Z,6.60
2017-09-13T03:46:09.507Z,5.80
2017-09-13T03:48:36.973Z,6.83
2017-09-13T03:51:04.443Z,7.03
2017-09-13T03:53:32.683Z,8.57
2017-09-13T03:56:00.148Z,2.33
2017-09-13T03:58:27.619Z,4.37
2017-09-13T04:00:55.080Z,5.87
2017-09-13T04:03:22.545Z,3.33
2017-09-13T04:05:50.782Z,4.93
2017-09-13T04:08:18.236Z,3.30
2017-09-13T04:10:45.695Z,2.60
2017-09-13T04:13:13.183Z,3.80
2017-09-13T04:15:40.647Z,1.67
2017-09-13T04:18:08.897Z,4.60
2017-09-13T04:20:37.236Z,3.00
2017-09-13T04:23:04.692Z,1.43
2017-09-13T04:25:32.171Z,2.07
2017-09-13T04:27:59.654Z,1.20
2017-09-13T04:30:28.623Z,2.60
2017-09-13T04:32:56.087Z,3.07
2017-09-13T04:35:23.559Z,1.67
2017-09-13T04:37:51.023Z,1.10
2017-09-13T04:40:19.293Z,1.77
2017-09-13T04:42:46.759Z,0.70
2017-09-13T04:45:14.998Z,1.00
2017-09-13T04:47:42.486Z,3.80
2017-09-13T04:50:09.959Z,1.00
2017-09-13T04:52:38.187Z,1.17
2017-09-13T04:55:05.667Z,0.70
2017-09-13T04:57:33.139Z,2.00
2017-09-13T05:00:01.360Z,0.70
2017-09-13T05:02:28.849Z,1.97
2017-09-13T05:04:56.319Z,3.90
2017-09-13T05:07:23.776Z,1.00
2017-09-13T05:09:52.049Z,1.27
2017-09-13T05:12:19.507Z,0.70
2017-09-13T05:14:47.760Z,1.20
2017-09-13T05:17:15.223Z,1.67
2017-09-13T05:19:42.735Z,2.07
2017-09-13T05:22:10.200Z,0.70
2017-09-13T05:24:37.675Z,1.47
2017-09-13T05:27:05.133Z,1.47
2017-09-13T05:29:32.592Z,2.27
2017-09-13T05:32:00.064Z,3.00
2017-09-13T05:34:27.552Z,1.80
2017-09-13T05:36:55.800Z,0.80
2017-09-13T05:39:23.260Z,0.70
2017-09-13T05:41:50.766Z,2.60
2017-09-13T05:44:18.320Z,1.30
2017-09-13T05:46:45.769Z,0.80
2017-09-13T05:49:13.267Z,2.10
2017-09-13T05:51:40.723Z,0.80
2017-09-13T05:54:08.204Z,1.30
2017-09-13T05:56:35.756Z,1.10
2017-09-13T05:59:03.218Z,1.53
2017-09-13T06:01:30.698Z,0.97
2017-09-13T06:03:58.150Z,0.97
2017-09-13T06:06:26.398Z,5.90
2017-09-13T06:08:53.865Z,2.20
2017-09-13T06:11:21.328Z,1.30
2017-09-13T06:13:49.576Z,4.20
2017-09-13T06:16:17.044Z,3.10
2017-09-13T06:18:44.542Z,1.53
2017-09-13T06:21:13.211Z,1.77
2017-09-13T06:23:41.437Z,1.27
2017-09-13T06:26:08.910Z,1.10
2017-09-13T06:28:36.380Z,3.90
2017-09-13T06:31:03.848Z,3.00
2017-09-13T06:33:32.107Z,2.37
2017-09-13T06:35:59.588Z,5.13
2017-09-13T06:38:27.826Z,6.80
2017-09-13T06:40:56.819Z,4.27
2017-09-13T06:43:24.387Z,5.73
2017-09-13T06:45:51.847Z,11.10
2017-09-13T06:48:19.320Z,7.40
2017-09-13T06:50:47.547Z,6.80
2017-09-13T06:53:15.968Z,6.60
2017-09-13T06:55:44.216Z,9.83
2017-09-13T06:58:11.785Z,5.30
2017-09-13T07:00:39.243Z,6.40
2017-09-13T07:03:06.804Z,8.03
2017-09-13T07:05:34.280Z,9.63
2017-09-13T07:08:02.633Z,11.80
2017-09-13T07:10:30.191Z,9.30
2017-09-13T07:12:57.742Z,11.73
2017-09-13T07:15:25.216Z,10.57
2017-09-13T07:17:52.714Z,7.50
2017-09-13T07:20:20.183Z,10.73
2017-09-13T07:22:47.650Z,19.03
2017-09-13T07:25:15.147Z,15.93
2017-09-13T07:27:43.382Z,12.30
2017-09-13T07:30:10.844Z,13.20
2017-09-13T07:32:38.322Z,12.07
2017-09-13T07:35:05.806Z,11.20
2017-09-13T07:37:34.056Z,14.43
2017-09-13T07:40:01.527Z,20.37
2017-09-13T07:42:29.773Z,16.43
2017-09-13T07:44:57.239Z,11.40
2017-09-13T07:47:24.807Z,22.67
2017-09-13T07:49:53.027Z,19.27
2017-09-13T07:52:20.527Z,18.57
2017-09-13T07:54:48.015Z,18.00
2017-09-13T07:57:16.256Z,19.13
2017-09-13T07:59:43.728Z,16.93
2017-09-13T08:02:11.199Z,30.53
2017-09-13T08:04:39.434Z,12.43
2017-09-13T08:07:06.911Z,24.10
2017-09-13T08:09:34.379Z,13.60
2017-09-13T08:12:02.643Z,22.23
2017-09-13T08:14:30.103Z,18.23
2017-09-13T08:16:57.661Z,22.97
2017-09-13T08:19:25.136Z,16.03
2017-09-13T08:21:53.384Z,25.40
2017-09-13T08:24:20.856Z,21.87
2017-09-13T08:26:50.304Z,9.73
2017-09-13T08:29:18.723Z,20.67
2017-09-13T08:31:46.971Z,19.97
2017-09-13T08:34:14.426Z,22.87
2017-09-13T08:36:41.923Z,20.37
2017-09-13T08:39:10.146Z,21.10
2017-09-13T08:41:37.607Z,25.20
2017-09-13T08:44:05.105Z,18.40
2017-09-13T08:46:32.586Z,20.67
2017-09-13T08:49:00.831Z,19.17
2017-09-13T08:51:28.299Z,22.80
2017-09-13T08:53:56.544Z,20.40
2017-09-13T08:56:23.999Z,17.10
2017-09-13T08:58:51.495Z,20.47
2017-09-13T09:01:19.739Z,16.70
2017-09-13T09:03:47.978Z,11.60
2017-09-13T09:06:15.468Z,14.40
2017-09-13T09:08:42.923Z,12.37
2017-09-13T09:11:10.394Z,11.10
2017-09-13T09:13:37.864Z,16.83
2017-09-13T09:16:06.085Z,9.77
2017-09-13T09:18:33.567Z,19.87
2017-09-13T09:21:01.031Z,18.23
2017-09-13T09:23:28.503Z,18.20
2017-09-13T09:25:56.768Z,16.50
2017-09-13T09:28:24.235Z,16.60
2017-09-13T09:30:52.468Z,23.13
2017-09-13T09:33:19.951Z,10.20
2017-09-13T09:35:47.427Z,8.27
2017-09-13T09:38:15.651Z,10.87
2017-09-13T09:40:43.131Z,13.77
2017-09-13T09:43:11.369Z,19.47
2017-09-13T09:45:38.835Z,13.00
2017-09-13T09:48:06.312Z,10.37
2017-09-13T09:50:33.793Z,10.30
2017-09-13T09:53:01.273Z,12.60
2017-09-13T09:55:29.495Z,8.83
2017-09-13T09:57:56.973Z,10.30
2017-09-13T10:00:24.468Z,13.17
2017-09-13T10:02:52.695Z,10.70
2017-09-13T10:05:20.180Z,19.57
2017-09-13T10:07:48.407Z,15.43
2017-09-13T10:10:15.888Z,9.40
2017-09-13T10:12:43.345Z,17.83
2017-09-13T10:15:10.812Z,11.23
2017-09-13T10:17:38.285Z,4.70
2017-09-13T10:20:06.520Z,13.03
2017-09-13T10:22:33.994Z,15.00
2017-09-13T10:25:01.465Z,13.30
2017-09-13T10:27:28.939Z,13.03
2017-09-13T10:29:56.414Z,8.60
2017-09-13T10:32:23.880Z,9.70
2017-09-13T10:34:51.381Z,10.27
2017-09-13T10:37:18.876Z,10.30
2017-09-13T10:39:46.365Z,10.60
2017-09-13T10:42:13.835Z,11.93
2017-09-13T10:44:41.315Z,11.27
2017-09-13T10:47:08.781Z,12.77
2017-09-13T10:49:37.020Z,10.17
2017-09-13T10:52:04.509Z,8.67
2017-09-13T10:54:31.968Z,13.20
2017-09-13T10:57:00.197Z,13.87
2017-09-13T10:59:27.683Z,11.07
2017-09-13T11:01:56.653Z,8.77
2017-09-13T11:04:24.115Z,15.50
2017-09-13T11:06:51.606Z,8.90
2017-09-13T11:09:20.018Z,10.03
2017-09-13T11:11:47.475Z,10.13
2017-09-13T11:14:14.963Z,11.73
2017-09-13T11:16:42.427Z,11.80
2017-09-13T11:19:09.890Z,11.73
2017-09-13T11:21:37.372Z,6.10
2017-09-13T11:24:05.620Z,9.53
2017-09-13T11:26:33.139Z,16.93
2017-09-13T11:29:00.604Z,8.60
2017-09-13T11:31:28.074Z,15.70
2017-09-13T11:33:55.530Z,13.10
2017-09-13T11:36:23.003Z,8.47
2017-09-13T11:38:50.482Z,12.60
2017-09-13T11:41:18.723Z,12.30
2017-09-13T11:43:46.216Z,5.23
2017-09-13T11:46:14.435Z,4.50
2017-09-13T11:48:41.918Z,20.80
2017-09-13T11:51:09.381Z,14.17
2017-09-13T11:53:36.847Z,9.83
2017-09-13T11:56:05.093Z,17.90
2017-09-13T11:58:32.559Z,7.30
2017-09-13T12:01:00.067Z,8.83
2017-09-13T12:03:27.530Z,9.53
2017-09-13T12:05:55.004Z,6.67
2017-09-13T12:08:22.464Z,8.90
2017-09-13T12:10:49.947Z,9.57
2017-09-13T12:13:17.411Z,6.67
2017-09-13T12:15:44.868Z,7.70
2017-09-13T12:18:12.340Z,8.60
2017-09-13T12:20:40.579Z,10.30
2017-09-13T12:23:08.060Z,7.50
2017-09-13T12:25:35.519Z,11.93
2017-09-13T12:28:03.760Z,9.50
2017-09-13T12:30:31.243Z,9.90
2017-09-13T12:32:58.691Z,9.33
2017-09-13T12:35:26.167Z,9.63
2017-09-13T12:37:54.400Z,8.43
2017-09-13T12:40:21.860Z,6.47
2017-09-13T12:42:49.343Z,9.53
2017-09-13T12:45:18.311Z,7.93
2017-09-13T12:47:45.802Z,10.63
2017-09-13T12:50:13.272Z,9.73
2017-09-13T12:52:41.511Z,8.93
2017-09-13T12:55:08.971Z,7.40
2017-09-13T12:57:36.430Z,10.60
2017-09-13T13:00:03.920Z,8.20
2017-09-13T13:02:32.162Z,12.23
2017-09-13T13:04:59.644Z,8.77
2017-09-13T13:07:27.884Z,6.90
2017-09-13T13:09:55.349Z,7.60
2017-09-13T13:12:22.823Z,5.27
2017-09-13T13:14:51.060Z,13.13
2017-09-13T13:17:18.535Z,7.30
2017-09-13T13:19:46.022Z,10.53
2017-09-13T13:22:14.243Z,6.73
2017-09-13T13:24:41.728Z,8.10
2017-09-13T13:27:09.200Z,6.20
2017-09-13T13:29:36.688Z,10.60
2017-09-13T13:32:04.163Z,8.33
2017-09-13T13:34:31.631Z,12.90
2017-09-13T13:36:59.099Z,5.43
2017-09-13T13:39:26.840Z,9.30
2017-09-13T13:41:54.311Z,3.40
2017-09-13T13:44:21.772Z,13.43
2017-09-13T13:46:49.263Z,9.20
2017-09-13T13:49:17.493Z,5.10
2017-09-13T13:51:44.955Z,6.67
2017-09-13T13:54:12.424Z,8.13
2017-09-13T13:56:40.807Z,10.40
2017-09-13T13:59:08.288Z,8.73
2017-09-13T14:01:36.520Z,9.20
2017-09-13T14:04:04.005Z,5.00
2017-09-13T14:06:31.476Z,7.77
2017-09-13T14:08:59.719Z,9.67
2017-09-13T14:11:27.188Z,5.83
2017-09-13T14:13:54.664Z,4.23
2017-09-13T14:16:22.976Z,5.50
2017-09-13T14:18:50.431Z,4.80
2017-09-13T14:21:17.911Z,9.20
2017-09-13T14:23:45.376Z,6.50
2017-09-13T14:26:12.842Z,8.70
2017-09-13T14:28:40.308Z,7.00
2017-09-13T14:31:07.772Z,6.20
2017-09-13T14:33:36.025Z,4.33
2017-09-13T14:36:04.999Z,7.13
2017-09-13T14:38:32.478Z,8.20
2017-09-13T14:40:59.947Z,8.07
2017-09-13T14:43:28.200Z,5.60
2017-09-13T14:45:55.662Z,4.93
2017-09-13T14:48:23.131Z,3.93
2017-09-13T14:50:51.395Z,7.60
2017-09-13T14:53:18.852Z,5.10
2017-09-13T14:55:46.405Z,7.83
2017-09-13T14:58:13.881Z,8.90
2017-09-13T15:00:42.097Z,8.10
2017-09-13T15:03:09.584Z,5.90
2017-09-13T15:05:37.056Z,2.37
2017-09-13T15:08:04.560Z,5.57
2017-09-13T15:10:32.028Z,3.70
2017-09-13T15:12:59.507Z,7.50
2017-09-13T15:15:26.973Z,3.30
2017-09-13T15:17:54.439Z,4.23
2017-09-13T15:20:21.936Z,3.80
2017-09-13T15:22:49.414Z,2.07
2017-09-13T15:25:16.887Z,4.40
2017-09-13T15:27:44.355Z,4.70
2017-09-13T15:30:11.880Z,3.80
2017-09-13T15:32:39.377Z,7.03
2017-09-13T15:35:06.863Z,4.77
2017-09-13T15:37:35.113Z,3.33
2017-09-13T15:40:02.605Z,3.37
2017-09-13T15:42:30.083Z,6.80
2017-09-13T15:44:57.559Z,5.70
2017-09-13T15:47:25.048Z,5.07
2017-09-13T15:49:52.520Z,3.20
2017-09-13T15:52:20.771Z,9.27
2017-09-13T15:54:48.232Z,3.73
2017-09-13T15:57:15.720Z,1.90
2017-09-13T15:59:43.185Z,5.00
2017-09-13T16:02:10.655Z,2.00
2017-09-13T16:04:38.171Z,5.80
2017-09-13T16:07:06.482Z,4.57
2017-09-13T16:09:34.025Z,4.67
2017-09-13T16:12:02.439Z,4.80
2017-09-13T16:14:29.938Z,4.40
2017-09-13T16:16:58.219Z,10.70
2017-09-13T16:19:26.461Z,6.83
2017-09-13T16:21:53.916Z,6.10
2017-09-13T16:24:21.397Z,7.30
2017-09-13T16:26:48.858Z,7.13
2017-09-13T16:29:16.331Z,4.17
2017-09-13T16:31:44.564Z,13.63
2017-09-13T16:34:12.041Z,9.63
2017-09-13T16:36:39.513Z,11.50
2017-09-13T16:39:07.755Z,12.70
2017-09-13T16:41:36.589Z,8.53
2017-09-13T16:44:04.896Z,9.60
2017-09-13T16:46:32.396Z,9.77
2017-09-13T16:48:59.860Z,6.80
2017-09-13T16:51:28.104Z,15.07
2017-09-13T16:53:55.581Z,8.33
2017-09-13T16:56:23.052Z,6.30
2017-09-13T16:58:51.310Z,6.47
2017-09-13T17:01:18.775Z,9.40
2017-09-13T17:03:47.013Z,11.70
2017-09-13T17:06:14.499Z,8.90
2017-09-13T17:08:41.963Z,8.97
2017-09-13T17:11:10.199Z,10.30
2017-09-13T17:13:37.686Z,10.63
2017-09-13T17:16:05.166Z,9.50
2017-09-13T17:18:33.412Z,9.57
2017-09-13T17:21:00.875Z,9.80
2017-09-13T17:23:28.360Z,7.83
2017-09-13T17:25:55.855Z,10.93
2017-09-13T17:28:23.335Z,10.07
2017-09-13T17:30:50.821Z,8.00
2017-09-13T17:33:19.099Z,9.13
2017-09-13T17:35:47.393Z,9.93
2017-09-13T17:38:14.873Z,7.90
2017-09-13T17:40:42.366Z,9.83
2017-09-13T17:43:09.853Z,10.17
2017-09-13T17:45:37.319Z,12.07
2017-09-13T17:48:04.780Z,11.70
2017-09-13T17:50:32.270Z,10.00
2017-09-13T17:52:59.753Z,8.50
2017-09-13T17:55:27.243Z,10.10
2017-09-13T17:57:54.707Z,8.73
2017-09-13T18:00:22.171Z,15.57
2017-09-13T18:02:49.648Z,15.00
2017-09-13T18:05:17.118Z,15.83
2017-09-13T18:07:44.594Z,14.97
2017-09-13T18:10:12.828Z,10.20
2017-09-13T18:12:40.315Z,14.70
2017-09-13T18:15:07.783Z,14.83
2017-09-13T18:17:36.031Z,10.43
2017-09-13T18:20:03.502Z,13.03
2017-09-13T18:22:30.969Z,10.47
2017-09-13T18:24:58.441Z,11.70
2017-09-13T18:27:26.672Z,19.40
2017-09-13T18:29:54.147Z,6.33
2017-09-13T18:32:21.632Z,10.57
2017-09-13T18:34:49.879Z,13.83
2017-09-13T18:37:18.363Z,12.50
2017-09-13T18:39:46.662Z,8.93
2017-09-13T18:42:14.194Z,9.70
2017-09-13T18:44:41.722Z,13.37
2017-09-13T18:47:09.360Z,10.60
2017-09-13T18:49:37.063Z,17.00
2017-09-13T18:52:05.350Z,12.37
2017-09-13T18:54:33.627Z,13.53
2017-09-13T18:57:01.155Z,5.33
2017-09-13T18:59:28.628Z,13.00
2017-09-13T19:01:56.290Z,9.40
2017-09-13T19:04:23.881Z,9.43
2017-09-13T19:06:51.555Z,8.23
2017-09-13T19:09:19.783Z,6.87
2017-09-13T19:11:47.267Z,9.53
2017-09-13T19:14:15.690Z,15.50
2017-09-13T19:16:43.175Z,13.20
2017-09-13T19:19:10.724Z,10.13
2017-09-13T19:21:38.318Z,13.63
2017-09-13T19:24:05.924Z,13.03
2017-09-13T19:26:33.445Z,12.07
2017-09-13T19:29:01.719Z,7.70
2017-09-13T19:31:29.973Z,10.43
2017-09-13T19:33:57.884Z,9.23
2017-09-13T19:36:25.385Z,7.10
2017-09-13T19:38:53.039Z,8.90
2017-09-13T19:41:20.572Z,8.57
2017-09-13T19:43:48.075Z,11.73
2017-09-13T19:46:16.525Z,17.57
2017-09-13T19:48:44.016Z,11.70
2017-09-13T19:51:11.524Z,19.90
2017-09-13T19:53:38.978Z,12.43
2017-09-13T19:56:06.565Z,11.63
2017-09-13T19:58:34.082Z,8.50
2017-09-13T20:01:01.552Z,15.47
2017-09-13T20:03:29.032Z,8.77
2017-09-13T20:05:56.496Z,18.83
2017-09-13T20:08:24.001Z,13.53
2017-09-13T20:10:51.468Z,13.77
2017-09-13T20:13:18.952Z,9.87
2017-09-13T20:15:46.424Z,9.57
2017-09-13T20:18:13.899Z,11.43
2017-09-13T20:20:41.384Z,18.97
2017-09-13T20:23:08.931Z,14.27
2017-09-13T20:25:37.180Z,14.33
2017-09-13T20:28:04.660Z,17.50
2017-09-13T20:30:32.908Z,15.47
2017-09-13T20:33:00.396Z,13.73
2017-09-13T20:35:28.615Z,14.10
2017-09-13T20:37:56.177Z,12.53
2017-09-13T20:40:23.645Z,12.90
2017-09-13T20:42:51.139Z,18.53
2017-09-13T20:45:19.368Z,16.77
2017-09-13T20:47:46.855Z,19.33
2017-09-13T20:50:14.340Z,14.87
2017-09-13T20:52:41.831Z,14.47
2017-09-13T20:55:09.328Z,11.90
2017-09-13T20:57:36.790Z,10.90
2017-09-13T21:00:05.035Z,18.57
2017-09-13T21:02:32.519Z,22.53
2017-09-13T21:04:59.979Z,18.20
2017-09-13T21:07:28.231Z,16.07
2017-09-13T21:09:55.728Z,16.80
2017-09-13T21:12:23.972Z,20.40
2017-09-13T21:14:51.447Z,18.10
2017-09-13T21:17:19.699Z,17.03
2017-09-13T21:19:47.160Z,15.80
2017-09-13T21:22:14.631Z,23.53
2017-09-13T21:24:42.879Z,20.53
2017-09-13T21:27:10.365Z,20.73
2017-09-13T21:29:38.619Z,18.17
2017-09-13T21:32:06.100Z,24.20
2017-09-13T21:34:34.333Z,15.90
2017-09-13T21:37:01.811Z,21.17
2017-09-13T21:39:29.299Z,16.60
2017-09-13T21:41:56.773Z,23.83
2017-09-13T21:44:24.241Z,17.53
2017-09-13T21:46:51.711Z,18.53
2017-09-13T21:49:19.193Z,18.30
2017-09-13T21:51:46.669Z,20.77
2017-09-13T21:54:14.891Z,14.10
2017-09-13T21:56:42.372Z,16.33
2017-09-13T21:59:09.835Z,16.37
2017-09-13T22:01:37.316Z,16.43
2017-09-13T22:04:05.562Z,13.93
2017-09-13T22:06:34.547Z,13.57
2017-09-13T22:09:02.024Z,17.60
2017-09-13T22:11:30.251Z,10.73
2017-09-13T22:13:57.723Z,7.60
2017-09-13T22:16:25.186Z,9.40
2017-09-13T22:18:52.671Z,11.03
2017-09-13T22:21:20.134Z,9.70
2017-09-13T22:23:48.388Z,15.33
2017-09-13T22:26:16.633Z,14.97
2017-09-13T22:28:44.101Z,9.27
2017-09-13T22:31:11.575Z,9.50
2017-09-13T22:33:39.039Z,11.50
2017-09-13T22:36:06.495Z,8.57
2017-09-13T22:38:33.975Z,10.27
2017-09-13T22:41:02.206Z,14.50
2017-09-13T22:43:29.683Z,12.70
2017-09-13T22:45:57.152Z,10.97
2017-09-13T22:48:25.407Z,9.47
2017-09-13T22:50:52.873Z,15.40
2017-09-13T22:53:20.352Z,12.33
2017-09-13T22:55:48.599Z,14.30
2017-09-13T22:58:16.059Z,11.93
2017-09-13T23:00:43.556Z,13.37
2017-09-13T23:03:11.015Z,12.07
2017-09-13T23:05:38.480Z,15.33
2017-09-13T23:08:05.961Z,11.57
2017-09-13T23:10:33.443Z,10.93
2017-09-13T23:13:00.939Z,10.40
2017-09-13T23:15:28.411Z,13.83
2017-09-13T23:17:55.891Z,12.17
2017-09-13T23:20:23.419Z,9.80
2017-09-13T23:22:50.892Z,11.70
2017-09-13T23:25:18.346Z,9.00
2017-09-13T23:27:45.816Z,14.97
2017-09-13T23:30:13.305Z,15.60
2017-09-13T23:32:40.764Z,14.33
2017-09-13T23:35:09.008Z,15.57
2017-09-13T23:37:36.468Z,10.20
2017-09-13T23:40:03.924Z,8.77
2017-09-13T23:42:31.405Z,20.57
2017-09-13T23:44:58.865Z,10.73
2017-09-13T23:47:27.139Z,10.17
2017-09-13T23:49:55.367Z,19.73
2017-09-13T23:52:22.847Z,11.10
2017-09-13T23:54:50.315Z,11.80
2017-09-13T23:57:17.785Z,12.53
2017-09-13T23:59:46.030Z,13.33
